Terminal Aerodrome Forecast
Issued by NWS

Home | Current Version | Previous Version | Text Only | Print | Product List | Glossary On
Versions: 1 2 3 4 5 6 7 8 9 10 11 12 13 14 15 16 17 18 19 20 21 22 23 24 25 26
000
FTUS43 KSGF 200529
TAFJLN
TAF
KJLN 200529Z 2006/2106 15009KT P6SM BKN250
     FM200900 16011KT P6SM VCSH SCT020 OVC045
     FM201300 17009KT P6SM -SHRA OVC020
     FM202100 19011KT P6SM OVC045
     FM210000 19006KT P6SM BKN200=

USA.gov is the U.S. government's official web portal to all federal, state and local government web resources and services.